Agawam, MA

5:15 AM EST on January 25, 2015 (GMT -0500)
Sheri Lane | Change Station
CLOSE
Current Station
Personal Weather Station
Location: Agawam, MA
Elevation: 177 ft
Nearby Weather Stations

Elev 177 ft 42.08 °N, 72.64 °W | Updated 1 second ago

Overcast
Overcast
30.9 °F
Feels Like 31 °F
N
2.7
Wind Variable Wind from ESE
Gusts 2.7 mph

Today
High -- | Low -- °F
--% Chance of Precip.
Yesterday
High -- | Low -- °F
Precip. -- in
7:10 AM 4:55 PM
Waxing Crescent, 31% visible
Pressure 29.50 in
Visibility 10.0 miles
Clouds Overcast 3000 ft
Windchill 31 °F
Dew Point 27 °F
Humidity 85%
Rainfall 0.00 in
Snow Depth Not available.
UV 0 out of 12
Pollen .10 out of 12
Air Quality Not available.
Flu Activity Not available.
METAR KBAF 250953Z 17007KT 10SM OVC030 00/M04 A2948 RMK AO2 SLP989 T00001039

More Conditions Fewer Conditions

Pressure 29.50 in
Visibility 10.0 miles
Clouds Overcast 3000 ft
Windchill 31 °F
Dew Point 27 °F
Humidity 85%
Rainfall 0.00 in
Snow Depth Not available.
UV 0 out of 12
Pollen .10 out of 12
Air Quality Not available.
Flu Activity Not available.
METAR KBAF 250953Z 17007KT 10SM OVC030 00/M04 A2948 RMK AO2 SLP989 T00001039

More Conditions Fewer Conditions

10-Day Weather Forecast

Almanac

Astronomy

Jan. 25, 2015 Rise Set
Actual Time
Civil Twilight
Nautical Twilight
Astronomical Twilight
Moon
Length of Visible Light
Length of Day
Tomorrow will be .
, % of the Moon is Illuminated

Today's Extremes

State Highs State Lows

Community

WunderPhotos

Upload Photos

1,789,861 photos uploaded!

WunderBlogs® & News

Nearby

Air Quality

  Air Quality AQ Index Pollutant
Not available.

Snow Depth

Station Depth Elevation

Earthquake Activity

City Distance Mag. Time & Date
Minimum magnitude displayed is 2.5.

Coastal Water Temperatures

Place Temperature

Nearby Weather Stations